Time;durP1;ratioP1;P1;durP2;ratioP2;P2;SDS_P1;SDS_P2;PMS_P1;PMS_P2;Temp;Humidity;BMP_temperature;BMP_pressure;BME280_temperature;BME280_humidity;BME280_pressure;Samples;Min_cycle;Max_cycle;Signal;HPM_P1;HPM_P2
2022/01/03 00:04:22;;;;;;;4.82;1.50;;;;;;;;;;10219428;29;20035;-71
2022/01/03 00:09:25;;;;;;;2.75;1.55;;;;;;;;;;10242955;28;20469;-73
2022/01/03 00:14:31;;;;;;;5.72;1.83;;;;;;;;;;10213539;28;20028;-75
2022/01/03 00:19:33;;;;;;;2.05;1.02;;;;;;;;;;10215776;29;20043;-72
2022/01/03 00:24:37;;;;;;;2.47;1.42;;;;;;;;;;10221559;28;20039;-72
2022/01/03 00:29:44;;;;;;;2.30;0.90;;;;;;;;;;10227016;28;20043;-71
2022/01/03 00:34:50;;;;;;;4.53;1.35;;;;;;;;;;10229364;28;20092;-73
2022/01/03 00:39:53;;;;;;;3.30;0.60;;;;;;;;;;10234945;28;20060;-74
2022/01/03 00:44:58;;;;;;;2.92;1.15;;;;;;;;;;10229923;28;20042;-74
2022/01/03 00:50:02;;;;;;;2.33;1.10;;;;;;;;;;10236207;28;21266;-70
2022/01/03 00:55:06;;;;;;;3.42;1.42;;;;;;;;;;10231169;28;20122;-73
2022/01/03 01:00:11;;;;;;;3.70;1.40;;;;;;;;;;10230630;28;20103;-73
2022/01/03 01:05:14;;;;;;;1.67;0.90;;;;;;;;;;10237894;28;20047;-74
2022/01/03 01:10:17;;;;;;;1.42;0.80;;;;;;;;;;10223589;28;20098;-73
2022/01/03 01:15:21;;;;;;;2.33;1.30;;;;;;;;;;10230321;29;20043;-75
2022/01/03 01:20:25;;;;;;;5.18;1.45;;;;;;;;;;10217268;28;20031;-73
2022/01/03 01:30:47;;;;;;;3.22;0.98;;;;;;;;;;10228904;29;20452;-73
2022/01/03 01:35:53;;;;;;;4.85;1.35;;;;;;;;;;10227105;29;20400;-74
2022/01/03 01:40:56;;;;;;;3.72;1.23;;;;;;;;;;10229191;28;20137;-73
2022/01/03 01:46:03;;;;;;;1.45;0.82;;;;;;;;;;10234230;29;20119;-73
2022/01/03 01:51:07;;;;;;;2.22;1.10;;;;;;;;;;10222273;28;20147;-73
2022/01/03 01:56:15;;;;;;;4.25;1.55;;;;;;;;;;10224101;29;20085;-71
2022/01/03 02:01:21;;;;;;;2.97;1.00;;;;;;;;;;10221328;29;20262;-73
2022/01/03 02:06:27;;;;;;;4.20;1.30;;;;;;;;;;10229226;29;20465;-72
2022/01/03 02:11:34;;;;;;;2.63;1.25;;;;;;;;;;10228381;28;20036;-72
2022/01/03 02:16:39;;;;;;;2.63;1.35;;;;;;;;;;10228248;28;20118;-72
2022/01/03 02:21:43;;;;;;;5.63;1.70;;;;;;;;;;10223848;29;20035;-73
2022/01/03 02:26:45;;;;;;;;;;;;;;;;;;10230700;29;20043;-73
2022/01/03 02:31:48;;;;;;;2.50;1.00;;;;;;;;;;10216864;29;19927;-73
2022/01/03 02:36:53;;;;;;;4.03;0.88;;;;;;;;;;10229706;29;20035;-72
2022/01/03 02:41:55;;;;;;;2.42;0.77;;;;;;;;;;10217652;28;20047;-69
2022/01/03 02:46:58;;;;;;;2.45;1.02;;;;;;;;;;10222364;28;20508;-71
2022/01/03 02:52:03;;;;;;;3.15;0.55;;;;;;;;;;10215520;28;20468;-72
2022/01/03 02:57:06;;;;;;;1.88;1.02;;;;;;;;;;10222470;29;20134;-72
2022/01/03 03:02:08;;;;;;;2.13;0.85;;;;;;;;;;10222514;28;20169;-70
2022/01/03 03:07:19;;;;;;;2.67;1.00;;;;;;;;;;10236950;28;20046;-72
2022/01/03 03:12:23;;;;;;;1.45;0.70;;;;;;;;;;10217272;29;20044;-72
2022/01/03 03:17:26;;;;;;;;;;;;;;;;;;10219246;28;20119;-72
2022/01/03 03:22:31;;;;;;;4.53;1.00;;;;;;;;;;10215966;29;20374;-73
2022/01/03 03:27:42;;;;;;;1.85;0.65;;;;;;;;;;10224733;28;20047;-73
2022/01/03 03:32:52;;;;;;;1.45;0.85;;;;;;;;;;10222644;28;20078;-73
2022/01/03 03:37:56;;;;;;;1.77;0.88;;;;;;;;;;10220387;28;20042;-72
2022/01/03 03:42:59;;;;;;;4.32;1.63;;;;;;;;;;10220010;29;20035;-71
2022/01/03 03:48:02;;;;;;;4.30;1.20;;;;;;;;;;10216992;28;20058;-72
2022/01/03 03:53:06;;;;;;;5.57;1.00;;;;;;;;;;10209102;28;20112;-71
2022/01/03 03:58:09;;;;;;;0.57;0.43;;;;;;;;;;10236980;23;20043;-76
2022/01/03 04:03:12;;;;;;;2.40;0.60;;;;;;;;;;10216447;28;20055;-76
2022/01/03 04:08:16;;;;;;;5.37;1.00;;;;;;;;;;10226668;28;20031;-76
2022/01/03 04:13:19;;;;;;;0.93;0.45;;;;;;;;;;10233760;28;20038;-76
2022/01/03 04:18:22;;;;;;;0.80;0.60;;;;;;;;;;10234652;28;20035;-77
2022/01/03 04:23:26;;;;;;;3.50;1.17;;;;;;;;;;10232805;28;20392;-76
2022/01/03 04:28:29;;;;;;;1.05;0.63;;;;;;;;;;10235218;28;20269;-78
2022/01/03 04:33:32;;;;;;;2.30;0.82;;;;;;;;;;10231790;28;20031;-77
2022/01/03 04:38:36;;;;;;;4.57;1.15;;;;;;;;;;10238608;28;20058;-77
2022/01/03 04:43:41;;;;;;;4.47;1.00;;;;;;;;;;10235875;29;20043;-76
2022/01/03 04:48:43;;;;;;;0.90;0.50;;;;;;;;;;10220377;29;20039;-76
2022/01/03 04:53:47;;;;;;;4.45;1.38;;;;;;;;;;10243367;28;20080;-79
2022/01/03 04:58:50;;;;;;;;;;;;;;;;;;10248902;28;20109;-78
2022/01/03 05:03:53;;;;;;;1.55;0.65;;;;;;;;;;10251539;28;19922;-78
2022/01/03 05:08:57;;;;;;;3.15;0.95;;;;;;;;;;10230298;28;20138;-76
2022/01/03 05:14:00;;;;;;;2.78;0.75;;;;;;;;;;10231197;29;20038;-77
2022/01/03 05:19:03;;;;;;;3.40;0.73;;;;;;;;;;10232505;28;20035;-78
2022/01/03 05:24:08;;;;;;;2.43;0.43;;;;;;;;;;10227118;28;20039;-77
2022/01/03 05:29:10;;;;;;;0.25;0.25;;;;;;;;;;10231168;28;20035;-78
2022/01/03 05:34:13;;;;;;;4.57;1.40;;;;;;;;;;10228522;29;20426;-77
2022/01/03 05:39:17;;;;;;;2.58;0.73;;;;;;;;;;10235604;28;20115;-77
2022/01/03 05:44:20;;;;;;;1.88;0.32;;;;;;;;;;10233057;28;20492;-77
2022/01/03 05:49:23;;;;;;;1.97;0.90;;;;;;;;;;10244011;29;20119;-77
2022/01/03 05:54:28;;;;;;;5.32;0.73;;;;;;;;;;10239989;29;20040;-78
2022/01/03 05:59:31;;;;;;;1.77;1.02;;;;;;;;;;10250063;29;20101;-76
2022/01/03 06:04:42;;;;;;;2.35;0.57;;;;;;;;;;10228981;28;20042;-77
2022/01/03 06:09:46;;;;;;;2.88;1.00;;;;;;;;;;10222607;28;20040;-77
2022/01/03 06:14:49;;;;;;;3.15;0.70;;;;;;;;;;10225367;29;20046;-77
2022/01/03 06:19:53;;;;;;;1.42;0.45;;;;;;;;;;10222619;29;20106;-78
2022/01/03 06:24:57;;;;;;;2.85;0.88;;;;;;;;;;10226965;28;20050;-78
2022/01/03 06:29:59;;;;;;;;;;;;;;;;;;10236562;28;20039;-78
2022/01/03 06:35:02;;;;;;;4.47;0.47;;;;;;;;;;10223768;28;19950;-78
2022/01/03 06:40:07;;;;;;;3.75;0.80;;;;;;;;;;10234456;29;20467;-77
2022/01/03 06:45:10;;;;;;;1.17;0.63;;;;;;;;;;10216741;28;20470;-77
2022/01/03 06:50:13;;;;;;;2.78;0.80;;;;;;;;;;10220185;28;20044;-77
2022/01/03 06:55:18;;;;;;;0.93;0.68;;;;;;;;;;10210553;28;20036;-77
2022/01/03 07:00:20;;;;;;;1.63;0.60;;;;;;;;;;10236752;28;20107;-77
2022/01/03 07:05:23;;;;;;;4.85;1.02;;;;;;;;;;10231307;28;20050;-78
2022/01/03 07:10:28;;;;;;;1.75;0.95;;;;;;;;;;10229760;28;20066;-77
2022/01/03 07:20:51;;;;;;;1.85;0.63;;;;;;;;;;10232829;28;20059;-78
2022/01/03 07:25:55;;;;;;;1.13;0.60;;;;;;;;;;10231882;29;20507;-77
2022/01/03 07:30:58;;;;;;;2.05;0.65;;;;;;;;;;10239371;28;20099;-78
2022/01/03 07:36:01;;;;;;;3.55;0.63;;;;;;;;;;10248205;28;20103;-77
2022/01/03 07:41:05;;;;;;;2.75;1.02;;;;;;;;;;10237663;28;20070;-78
2022/01/03 07:46:19;;;;;;;1.42;0.57;;;;;;;;;;10238012;28;20036;-76
2022/01/03 07:51:22;;;;;;;3.20;0.77;;;;;;;;;;10238698;28;20655;-78
2022/01/03 07:56:27;;;;;;;1.67;0.60;;;;;;;;;;10233003;28;20103;-77
2022/01/03 08:01:30;;;;;;;3.78;0.90;;;;;;;;;;10238762;28;20103;-77
2022/01/03 08:06:33;;;;;;;1.17;0.63;;;;;;;;;;10232508;28;20503;-77
2022/01/03 08:11:37;;;;;;;2.15;0.60;;;;;;;;;;10230533;29;20147;-77
2022/01/03 08:16:40;;;;;;;2.38;0.65;;;;;;;;;;10238011;29;20357;-77
2022/01/03 08:21:43;;;;;;;6.83;0.60;;;;;;;;;;10234964;28;20035;-77
2022/01/03 08:26:49;;;;;;;2.97;0.77;;;;;;;;;;10232564;28;20066;-77
2022/01/03 08:31:52;;;;;;;3.60;0.90;;;;;;;;;;10230712;28;20518;-77
2022/01/03 08:36:55;;;;;;;0.65;0.30;;;;;;;;;;10236770;28;20035;-77
2022/01/03 08:41:59;;;;;;;3.33;0.90;;;;;;;;;;10231686;23;20153;-76
2022/01/03 08:47:02;;;;;;;3.33;0.60;;;;;;;;;;10232546;28;20036;-77
2022/01/03 08:52:06;;;;;;;3.15;0.65;;;;;;;;;;10195632;29;20036;-76
2022/01/03 08:57:11;;;;;;;1.40;0.30;;;;;;;;;;10205016;29;20354;-76
2022/01/03 09:02:15;;;;;;;0.52;0.40;;;;;;;;;;10197012;28;20047;-76
2022/01/03 09:07:18;;;;;;;4.47;0.90;;;;;;;;;;10204738;29;20034;-77
2022/01/03 09:12:23;;;;;;;1.00;0.28;;;;;;;;;;10201397;29;20043;-77
2022/01/03 09:17:26;;;;;;;0.47;0.45;;;;;;;;;;10193691;29;20028;-77
2022/01/03 09:22:34;;;;;;;0.55;0.52;;;;;;;;;;10199662;29;20076;-77
2022/01/03 09:33:08;;;;;;;2.20;0.50;;;;;;;;;;10160539;29;20047;-75
2022/01/03 09:38:11;;;;;;;1.85;0.77;;;;;;;;;;10194303;29;20127;-76
2022/01/03 09:43:18;;;;;;;2.15;0.47;;;;;;;;;;10200252;29;20043;-76
2022/01/03 09:48:22;;;;;;;2.00;0.90;;;;;;;;;;10192607;29;20400;-76
2022/01/03 09:53:25;;;;;;;3.75;0.60;;;;;;;;;;10203008;28;20377;-77
2022/01/03 09:58:32;;;;;;;0.50;0.20;;;;;;;;;;10192575;29;20572;-76
2022/01/03 10:03:35;;;;;;;0.40;0.40;;;;;;;;;;10201520;28;20433;-76
2022/01/03 10:08:38;;;;;;;2.63;0.53;;;;;;;;;;10196423;29;20102;-77
2022/01/03 10:13:42;;;;;;;0.63;0.38;;;;;;;;;;10201412;29;20087;-76
2022/01/03 10:18:46;;;;;;;2.33;0.55;;;;;;;;;;10212277;29;20475;-76
2022/01/03 10:23:49;;;;;;;;;;;;;;;;;;10209307;29;20032;-76
2022/01/03 10:29:10;;;;;;;3.83;0.63;;;;;;;;;;10196846;29;20022;-75
2022/01/03 10:34:14;;;;;;;1.13;0.40;;;;;;;;;;10226022;23;20551;-68
2022/01/03 10:39:16;;;;;;;;;;;;;;;;;;10229719;29;20044;-72
2022/01/03 10:44:31;;;;;;;1.65;0.35;;;;;;;;;;10229736;29;20691;-72
2022/01/03 10:49:36;;;;;;;2.75;0.77;;;;;;;;;;10234785;28;20138;-70
2022/01/03 10:54:40;;;;;;;1.88;0.70;;;;;;;;;;10252458;28;20415;-71
2022/01/03 10:59:44;;;;;;;4.10;1.02;;;;;;;;;;10238806;28;20117;-71
2022/01/03 11:04:51;;;;;;;1.77;0.75;;;;;;;;;;10237304;28;20514;-71
2022/01/03 11:15:28;;;;;;;;;;;;;;;;;;10234316;28;20102;-71
2022/01/03 11:20:33;;;;;;;1.52;0.50;;;;;;;;;;10237792;28;20370;-72
2022/01/03 11:25:36;;;;;;;1.50;0.47;;;;;;;;;;10234318;29;20047;-72
2022/01/03 11:30:39;;;;;;;1.50;0.50;;;;;;;;;;10223411;28;20044;-71
2022/01/03 11:35:53;;;;;;;3.10;0.80;;;;;;;;;;10227311;28;20059;-71
2022/01/03 11:40:56;;;;;;;1.55;0.60;;;;;;;;;;10233427;29;20043;-71
2022/01/03 11:45:59;;;;;;;2.10;0.30;;;;;;;;;;10226483;29;20031;-72
2022/01/03 11:51:06;;;;;;;2.90;0.32;;;;;;;;;;10228453;28;20174;-71
2022/01/03 11:56:14;;;;;;;1.02;0.60;;;;;;;;;;10228703;29;20031;-71
2022/01/03 12:06:39;;;;;;;2.15;0.50;;;;;;;;;;10226641;29;20039;-70
2022/01/03 12:11:43;;;;;;;2.33;0.57;;;;;;;;;;10228652;28;20087;-71
2022/01/03 12:16:48;;;;;;;4.63;0.80;;;;;;;;;;10250950;28;20074;-72
2022/01/03 12:21:59;;;;;;;1.38;0.35;;;;;;;;;;10243217;28;20463;-72
2022/01/03 12:27:21;;;;;;;3.20;0.82;;;;;;;;;;10232444;28;20107;-73
2022/01/03 12:32:24;;;;;;;0.70;0.47;;;;;;;;;;10237129;28;20103;-72
2022/01/03 12:37:28;;;;;;;0.83;0.50;;;;;;;;;;10246593;28;20040;-72
2022/01/03 12:42:46;;;;;;;5.03;0.75;;;;;;;;;;10257427;28;20499;-72
2022/01/03 12:47:48;;;;;;;3.28;0.82;;;;;;;;;;10239138;28;20539;-69
2022/01/03 12:52:54;;;;;;;3.97;1.08;;;;;;;;;;10225901;28;20531;-71
2022/01/03 12:57:58;;;;;;;2.17;0.93;;;;;;;;;;10240358;28;20504;-72
2022/01/03 13:03:19;;;;;;;0.98;0.60;;;;;;;;;;10234615;29;20517;-72
2022/01/03 13:08:23;;;;;;;4.10;1.00;;;;;;;;;;10231204;28;20047;-70
2022/01/03 13:13:27;;;;;;;1.40;0.40;;;;;;;;;;10231372;28;20048;-71
2022/01/03 13:18:30;;;;;;;1.52;0.70;;;;;;;;;;10231994;28;20047;-72
2022/01/03 13:23:35;;;;;;;5.70;0.93;;;;;;;;;;10228352;28;20047;-71
2022/01/03 13:28:45;;;;;;;3.22;0.82;;;;;;;;;;10225482;28;20043;-73
2022/01/03 13:33:54;;;;;;;1.80;0.70;;;;;;;;;;10235257;28;20047;-73
2022/01/03 13:39:06;;;;;;;2.85;1.13;;;;;;;;;;10232624;28;20043;-69
2022/01/03 13:44:11;;;;;;;5.15;0.88;;;;;;;;;;10239914;29;20046;-71
2022/01/03 13:49:17;;;;;;;2.92;0.70;;;;;;;;;;10237212;28;20067;-71
2022/01/03 13:54:23;;;;;;;1.48;0.43;;;;;;;;;;10226404;28;20036;-72
2022/01/03 13:59:28;;;;;;;1.13;0.63;;;;;;;;;;10230158;28;20046;-72
2022/01/03 14:04:36;;;;;;;6.50;0.77;;;;;;;;;;10235276;28;20043;-72
2022/01/03 14:09:44;;;;;;;2.42;0.52;;;;;;;;;;10253057;28;20102;-70
2022/01/03 14:14:52;;;;;;;0.50;0.50;;;;;;;;;;10225822;29;20059;-72
2022/01/03 14:20:02;;;;;;;1.98;0.52;;;;;;;;;;10233953;28;20082;-72
2022/01/03 14:25:08;;;;;;;1.58;0.68;;;;;;;;;;10237399;28;20039;-72
2022/01/03 14:30:20;;;;;;;1.70;0.63;;;;;;;;;;10230796;29;20066;-72
2022/01/03 14:35:31;;;;;;;2.90;0.75;;;;;;;;;;10234255;29;20448;-69
2022/01/03 14:40:43;;;;;;;1.33;0.77;;;;;;;;;;10262753;28;20050;-72
2022/01/03 14:45:47;;;;;;;1.08;0.55;;;;;;;;;;10233602;28;20297;-71
2022/01/03 14:51:04;;;;;;;2.17;0.47;;;;;;;;;;10229399;28;20416;-72
2022/01/03 14:56:24;;;;;;;1.50;0.50;;;;;;;;;;10226494;28;20046;-71
2022/01/03 15:01:27;;;;;;;5.47;0.60;;;;;;;;;;10230986;29;20137;-72
2022/01/03 15:06:31;;;;;;;1.73;0.52;;;;;;;;;;10254651;28;20047;-71
2022/01/03 15:11:35;;;;;;;1.90;0.37;;;;;;;;;;10239176;29;20047;-70
2022/01/03 15:16:39;;;;;;;0.45;0.28;;;;;;;;;;10237515;28;20337;-70
2022/01/03 15:21:43;;;;;;;2.15;0.50;;;;;;;;;;10230719;28;20036;-71
2022/01/03 15:26:48;;;;;;;1.48;0.52;;;;;;;;;;10229547;28;20699;-71
2022/01/03 15:31:51;;;;;;;2.17;0.70;;;;;;;;;;10226751;28;20043;-71
2022/01/03 15:36:54;;;;;;;4.00;0.90;;;;;;;;;;10223459;28;20119;-72
2022/01/03 15:41:58;;;;;;;0.75;0.45;;;;;;;;;;10219912;28;20039;-71
2022/01/03 15:47:01;;;;;;;1.60;0.82;;;;;;;;;;10223999;28;20162;-72
2022/01/03 15:52:05;;;;;;;1.57;0.60;;;;;;;;;;10224469;28;20226;-70
2022/01/03 15:57:09;;;;;;;0.53;0.43;;;;;;;;;;10229318;28;20039;-71
2022/01/03 16:02:12;;;;;;;1.67;0.60;;;;;;;;;;10224386;28;20035;-70
2022/01/03 16:07:15;;;;;;;0.43;0.27;;;;;;;;;;10237303;28;20508;-72
2022/01/03 16:12:20;;;;;;;1.08;0.63;;;;;;;;;;10233359;28;20110;-72
2022/01/03 16:17:23;;;;;;;1.17;0.50;;;;;;;;;;10236146;28;20407;-71
2022/01/03 16:22:26;;;;;;;1.80;0.70;;;;;;;;;;10234900;29;20423;-72
2022/01/03 16:27:30;;;;;;;1.70;0.30;;;;;;;;;;10234021;28;20403;-71
2022/01/03 16:32:33;;;;;;;2.33;0.50;;;;;;;;;;10267225;28;20051;-73
2022/01/03 16:37:37;;;;;;;0.47;0.30;;;;;;;;;;10236465;28;20035;-71
2022/01/03 16:42:41;;;;;;;0.40;0.10;;;;;;;;;;10259691;28;20649;-71
2022/01/03 16:47:43;;;;;;;;;;;;;;;;;;10236645;28;20558;-71
2022/01/03 16:52:46;;;;;;;0.90;0.45;;;;;;;;;;10248116;28;20166;-71
2022/01/03 16:57:51;;;;;;;1.40;0.50;;;;;;;;;;10237196;29;20047;-70
2022/01/03 17:02:54;;;;;;;0.30;0.30;;;;;;;;;;10238992;28;20633;-71
2022/01/03 17:07:57;;;;;;;0.35;0.25;;;;;;;;;;10232737;29;20455;-71
2022/01/03 17:13:01;;;;;;;8.27;0.88;;;;;;;;;;10253083;23;20137;-76
2022/01/03 17:18:04;;;;;;;0.68;0.43;;;;;;;;;;10223490;29;20094;-78
2022/01/03 17:23:08;;;;;;;0.85;0.40;;;;;;;;;;10208828;29;20072;-77
2022/01/03 17:28:13;;;;;;;3.30;0.70;;;;;;;;;;10191737;29;20445;-77
2022/01/03 17:33:16;;;;;;;1.52;0.63;;;;;;;;;;10200120;29;20047;-76
2022/01/03 17:38:19;;;;;;;1.08;0.35;;;;;;;;;;10197966;29;20103;-78
2022/01/03 17:43:24;;;;;;;2.33;0.85;;;;;;;;;;10207295;29;20070;-77
2022/01/03 17:48:29;;;;;;;2.20;0.82;;;;;;;;;;10198490;29;20044;-76
2022/01/03 17:53:32;;;;;;;6.97;0.90;;;;;;;;;;10195394;29;20173;-77
2022/01/03 17:58:36;;;;;;;2.60;0.80;;;;;;;;;;10194327;29;20039;-77
2022/01/03 18:03:39;;;;;;;1.85;0.93;;;;;;;;;;10202775;29;20039;-76
2022/01/03 18:08:42;;;;;;;4.35;0.95;;;;;;;;;;10211704;29;20036;-77
2022/01/03 18:13:46;;;;;;;9.10;1.52;;;;;;;;;;10195318;29;20454;-76
2022/01/03 18:18:49;;;;;;;2.42;0.60;;;;;;;;;;10181839;29;20526;-75
2022/01/03 18:23:52;;;;;;;3.23;1.00;;;;;;;;;;10189113;29;20123;-76
2022/01/03 18:28:57;;;;;;;1.02;0.50;;;;;;;;;;10190174;29;20063;-77
2022/01/03 18:34:00;;;;;;;0.52;0.52;;;;;;;;;;10205182;29;20044;-77
2022/01/03 18:39:03;;;;;;;3.40;0.90;;;;;;;;;;10190931;29;20036;-74
2022/01/03 18:44:07;;;;;;;1.83;1.05;;;;;;;;;;10207798;29;20134;-77
2022/01/03 18:49:10;;;;;;;1.98;0.88;;;;;;;;;;10199424;29;20142;-77
2022/01/03 18:54:16;;;;;;;2.47;0.80;;;;;;;;;;10190921;29;20569;-77
2022/01/03 18:59:20;;;;;;;1.45;0.50;;;;;;;;;;10213584;29;20110;-76
2022/01/03 19:04:23;;;;;;;1.30;0.68;;;;;;;;;;10207831;29;20472;-74
2022/01/03 19:09:26;;;;;;;2.15;0.73;;;;;;;;;;10201063;29;20043;-77
2022/01/03 19:14:30;;;;;;;3.65;0.95;;;;;;;;;;10195993;29;20407;-76
2022/01/03 19:19:34;;;;;;;5.55;1.30;;;;;;;;;;10201191;29;20526;-78
2022/01/03 19:24:37;;;;;;;1.80;0.90;;;;;;;;;;10191376;29;20039;-77
2022/01/03 19:29:41;;;;;;;3.17;1.13;;;;;;;;;;10190097;29;20040;-76
2022/01/03 19:40:05;;;;;;;2.88;1.00;;;;;;;;;;10183404;29;20576;-78
2022/01/03 19:45:10;;;;;;;2.88;0.75;;;;;;;;;;10198346;29;20043;-76
2022/01/03 19:50:15;;;;;;;1.55;0.80;;;;;;;;;;10186186;29;20032;-75
2022/01/03 19:55:18;;;;;;;1.95;0.75;;;;;;;;;;10181574;29;20047;-76
2022/01/03 20:00:23;;;;;;;5.43;1.55;;;;;;;;;;10183229;29;20043;-75
2022/01/03 20:05:28;;;;;;;1.05;0.90;;;;;;;;;;10189187;29;20074;-78
2022/01/03 20:10:31;;;;;;;3.00;1.30;;;;;;;;;;10199172;29;20052;-78
2022/01/03 20:15:36;;;;;;;1.83;1.00;;;;;;;;;;10193108;29;20512;-77
2022/01/03 20:20:43;;;;;;;3.65;1.20;;;;;;;;;;10192719;29;20280;-78
2022/01/03 20:25:52;;;;;;;2.22;0.88;;;;;;;;;;10178719;29;20047;-77
2022/01/03 20:30:56;;;;;;;1.00;0.73;;;;;;;;;;10193996;29;20082;-78
2022/01/03 20:35:59;;;;;;;0.77;0.50;;;;;;;;;;10188205;29;20105;-77
2022/01/03 20:41:02;;;;;;;3.83;0.75;;;;;;;;;;10189934;29;20050;-77
2022/01/03 20:46:06;;;;;;;2.67;0.90;;;;;;;;;;10192585;29;20043;-77
2022/01/03 20:51:09;;;;;;;2.10;0.68;;;;;;;;;;10203814;29;20561;-77
2022/01/03 20:56:12;;;;;;;1.50;0.60;;;;;;;;;;10196838;29;20046;-77
2022/01/03 21:01:17;;;;;;;0.57;0.45;;;;;;;;;;10199356;29;20044;-77
2022/01/03 21:06:20;;;;;;;1.00;0.73;;;;;;;;;;10211485;29;20542;-78
2022/01/03 21:11:38;;;;;;;4.07;0.98;;;;;;;;;;10218250;29;20035;-77
2022/01/03 21:16:44;;;;;;;1.50;0.82;;;;;;;;;;10233017;29;20058;-77
2022/01/03 21:21:47;;;;;;;2.88;1.10;;;;;;;;;;10201431;29;20500;-78
2022/01/03 21:26:51;;;;;;;1.40;0.70;;;;;;;;;;10214061;29;20540;-77
2022/01/03 21:31:56;;;;;;;0.50;0.50;;;;;;;;;;10216535;29;20063;-77
2022/01/03 21:36:59;;;;;;;1.63;0.93;;;;;;;;;;10227184;29;20040;-77
2022/01/03 21:42:02;;;;;;;2.90;1.05;;;;;;;;;;10202589;29;20075;-77
2022/01/03 21:47:05;;;;;;;;;;;;;;;;;;10215901;29;20100;-77
2022/01/03 21:52:10;;;;;;;2.78;0.80;;;;;;;;;;10202552;29;19924;-76
2022/01/03 21:57:12;;;;;;;;;;;;;;;;;;10194921;29;20051;-78
2022/01/03 22:02:16;;;;;;;2.28;1.05;;;;;;;;;;10192480;29;19923;-77
2022/01/03 22:07:21;;;;;;;6.18;0.90;;;;;;;;;;10194083;29;20032;-77
2022/01/03 22:12:24;;;;;;;1.83;0.85;;;;;;;;;;10192752;29;20036;-77
2022/01/03 22:17:27;;;;;;;1.67;1.10;;;;;;;;;;10179619;29;20040;-77
2022/01/03 22:22:31;;;;;;;2.80;0.90;;;;;;;;;;10186592;29;20110;-77
2022/01/03 22:27:34;;;;;;;1.95;1.00;;;;;;;;;;10212944;29;20056;-77
2022/01/03 22:32:37;;;;;;;2.42;0.82;;;;;;;;;;10194706;29;20146;-78
2022/01/03 22:37:41;;;;;;;3.17;0.90;;;;;;;;;;10197365;29;20063;-77
2022/01/03 22:42:45;;;;;;;2.03;0.70;;;;;;;;;;10187865;29;20047;-77
2022/01/03 22:47:49;;;;;;;2.40;1.02;;;;;;;;;;10187962;29;20036;-75
2022/01/03 22:52:53;;;;;;;4.10;1.00;;;;;;;;;;10190977;29;20742;-76
2022/01/03 22:57:56;;;;;;;3.75;1.13;;;;;;;;;;10190630;29;20056;-76
2022/01/03 23:02:59;;;;;;;2.42;1.30;;;;;;;;;;10187375;29;20103;-77
2022/01/03 23:08:04;;;;;;;5.43;1.23;;;;;;;;;;10195770;29;20459;-78
2022/01/03 23:13:07;;;;;;;1.42;0.73;;;;;;;;;;10187817;29;20032;-76
2022/01/03 23:18:09;;;;;;;4.00;1.20;;;;;;;;;;10190422;29;20070;-77
2022/01/03 23:23:14;;;;;;;1.85;0.93;;;;;;;;;;10203807;29;20067;-77
2022/01/03 23:28:17;;;;;;;2.03;1.00;;;;;;;;;;10193274;29;20123;-77
2022/01/03 23:33:20;;;;;;;1.60;0.90;;;;;;;;;;10196070;29;20052;-77
2022/01/03 23:38:24;;;;;;;2.10;0.80;;;;;;;;;;10235266;23;20129;-79
2022/01/03 23:43:27;;;;;;;0.35;0.32;;;;;;;;;;10282956;28;20046;-78
2022/01/03 23:48:30;;;;;;;1.83;0.60;;;;;;;;;;10274277;28;20062;-79
2022/01/03 23:53:34;;;;;;;0.90;0.60;;;;;;;;;;10272866;28;20141;-77
2022/01/03 23:58:37;;;;;;;0.57;0.43;;;;;;;;;;10264488;28;20047;-78
